Fairgrove, Michigan
Current Conditions -  °F | °C
As of 1:05 PM on Thursday 27 Nov 2014 (Local Time) from KCFS Reporting Station
Overcast Overcast  
Wind Chill: 22°   Ceiling: 1600
Heat Index: 30°   Visibility: 2.5mi
Dew Point: 27°   Wind: 9mph
Humidity: 86%   Direction: 310°NW
Pressure: 30.14"   Gusts: NA
Location:  43.52°N, 83.54°W
Report Text: KCFS 271805Z AUTO 31008KT 2 1/2SM SCT010 OVC016 M01/M03 A3014 RMK AO2
Loading
Personal Weather Stations






























Interactive Weather Map New forecast layout! Learn more

10-Day Weather Forecast

Advertisements
Track Severe Weather on mobile